createdAt,value
2022-12-18T00:03:12.552Z,302.23
2022-12-18T00:08:19.622Z,301.41
2022-12-18T00:13:26.865Z,301.44
2022-12-18T00:18:34.047Z,301.09
2022-12-18T00:23:41.625Z,299.70
2022-12-18T00:28:48.485Z,298.46
2022-12-18T00:33:55.629Z,298.28
2022-12-18T00:39:02.862Z,298.20
2022-12-18T00:44:10.102Z,297.20
2022-12-18T00:49:17.314Z,296.84
2022-12-18T00:54:24.488Z,296.53
2022-12-18T00:59:31.718Z,296.11
2022-12-18T01:04:38.905Z,296.57
2022-12-18T01:09:46.170Z,296.15
2022-12-18T01:14:53.438Z,295.60
2022-12-18T01:20:00.608Z,295.07
2022-12-18T01:25:07.825Z,295.18
2022-12-18T01:30:14.991Z,294.43
2022-12-18T01:35:22.127Z,293.71
2022-12-18T01:40:29.327Z,293.19
2022-12-18T01:45:36.558Z,292.84
2022-12-18T01:50:43.758Z,292.64
2022-12-18T01:55:50.927Z,292.93
2022-12-18T02:00:58.214Z,292.65
2022-12-18T02:06:05.315Z,292.71
2022-12-18T02:11:12.596Z,291.73
2022-12-18T02:16:19.996Z,292.60
2022-12-18T02:21:27.038Z,292.39
2022-12-18T02:26:34.215Z,292.03
2022-12-18T02:31:41.543Z,292.24
2022-12-18T02:36:49.110Z,292.07
2022-12-18T02:41:56.392Z,292.47
2022-12-18T02:47:03.725Z,292.70
2022-12-18T02:52:10.841Z,292.55
2022-12-18T02:57:18.049Z,292.07
2022-12-18T03:02:25.581Z,291.95
2022-12-18T03:07:32.429Z,292.48
2022-12-18T03:12:39.632Z,291.65
2022-12-18T03:17:47.009Z,291.41
2022-12-18T03:22:54.144Z,291.52
2022-12-18T03:28:01.359Z,291.50
2022-12-18T03:33:08.679Z,292.60
2022-12-18T03:38:15.826Z,291.93
2022-12-18T03:43:23.035Z,292.45
2022-12-18T03:48:30.387Z,292.63
2022-12-18T03:53:37.909Z,291.41
2022-12-18T03:58:44.638Z,290.86
2022-12-18T04:03:52.095Z,290.06
2022-12-18T04:08:59.116Z,289.26
2022-12-18T04:14:07.516Z,288.85
2022-12-18T04:19:13.603Z,288.62
2022-12-18T04:24:20.706Z,288.16
2022-12-18T04:29:27.908Z,288.15
2022-12-18T04:34:35.209Z,287.80
2022-12-18T04:39:42.416Z,288.04
2022-12-18T04:44:49.619Z,287.61
2022-12-18T04:49:57.004Z,286.70
2022-12-18T04:55:04.113Z,286.67
2022-12-18T05:00:11.317Z,286.35
2022-12-18T05:05:18.659Z,286.28
2022-12-18T05:10:25.729Z,285.86
2022-12-18T05:15:32.935Z,285.90
2022-12-18T05:20:40.263Z,285.56
2022-12-18T05:25:47.280Z,285.14
2022-12-18T05:30:54.517Z,284.74
2022-12-18T05:36:01.792Z,284.81
2022-12-18T05:41:08.825Z,284.28
2022-12-18T05:46:16.122Z,284.06
2022-12-18T05:51:23.406Z,283.31
2022-12-18T05:56:30.445Z,283.46
2022-12-18T06:01:37.757Z,283.47
2022-12-18T06:06:44.895Z,283.46
2022-12-18T06:11:51.987Z,283.17
2022-12-18T06:16:59.190Z,282.89
2022-12-18T06:22:06.562Z,282.18
2022-12-18T06:27:13.675Z,281.82
2022-12-18T06:32:20.871Z,281.58
2022-12-18T06:37:28.255Z,281.57
2022-12-18T06:42:35.311Z,281.83
2022-12-18T06:47:42.499Z,282.26
2022-12-18T06:52:49.856Z,282.05
2022-12-18T06:57:56.947Z,281.64
2022-12-18T07:03:04.218Z,281.49
2022-12-18T07:08:11.473Z,280.78
2022-12-18T07:13:18.610Z,280.01
2022-12-18T07:18:25.841Z,279.13
2022-12-18T07:23:33.177Z,277.98
2022-12-18T07:28:40.253Z,277.22
2022-12-18T07:33:47.489Z,276.55
2022-12-18T07:38:54.791Z,275.77
2022-12-18T07:44:01.882Z,275.31
2022-12-18T07:49:09.098Z,275.00
2022-12-18T07:54:22.341Z,274.75
2022-12-18T07:59:23.670Z,274.21
2022-12-18T08:04:30.788Z,274.34
2022-12-18T08:09:38.037Z,273.59
2022-12-18T08:14:45.382Z,274.23
2022-12-18T08:19:52.523Z,273.85
2022-12-18T08:24:59.721Z,274.06
2022-12-18T08:30:07.019Z,274.58
2022-12-18T08:35:17.490Z,274.25
2022-12-18T08:40:21.335Z,274.45
2022-12-18T08:45:28.630Z,274.76
2022-12-18T08:50:35.704Z,274.94
2022-12-18T08:55:47.159Z,274.88
2022-12-18T09:00:50.170Z,274.68
2022-12-18T09:05:57.251Z,274.48
2022-12-18T09:11:04.448Z,274.26
2022-12-18T09:16:11.783Z,273.47
2022-12-18T09:21:18.867Z,273.68
2022-12-18T09:26:26.165Z,273.78
2022-12-18T09:31:33.493Z,274.10
2022-12-18T09:36:40.530Z,274.41
2022-12-18T09:41:47.695Z,274.88
2022-12-18T09:46:55.045Z,275.79
2022-12-18T09:52:02.115Z,275.03
2022-12-18T09:57:09.278Z,275.27
2022-12-18T10:02:16.706Z,276.02
2022-12-18T10:07:23.631Z,275.84
2022-12-18T10:12:30.837Z,275.98
2022-12-18T10:17:38.156Z,276.13
2022-12-18T10:22:45.200Z,277.05
2022-12-18T10:27:52.413Z,277.23
2022-12-18T10:32:59.809Z,276.41
2022-12-18T10:38:06.936Z,277.09
2022-12-18T10:43:14.370Z,276.47
2022-12-18T10:48:21.703Z,276.85
2022-12-18T10:53:28.867Z,276.61
2022-12-18T10:58:36.080Z,275.65
2022-12-18T11:03:43.564Z,275.95
2022-12-18T11:08:50.565Z,275.58
2022-12-18T11:13:57.801Z,275.22
2022-12-18T11:19:05.114Z,275.29
2022-12-18T11:24:12.242Z,275.92
2022-12-18T11:29:19.470Z,275.20
2022-12-18T11:34:29.549Z,275.78
2022-12-18T11:39:33.903Z,275.88
2022-12-18T11:44:41.115Z,276.72
2022-12-18T11:49:48.429Z,276.00
2022-12-18T11:54:55.523Z,276.12
2022-12-18T12:00:02.722Z,277.19
2022-12-18T12:05:10.060Z,277.68
2022-12-18T12:10:17.248Z,277.98
2022-12-18T12:15:24.541Z,279.18
2022-12-18T12:20:35.924Z,279.31
2022-12-18T12:25:39.073Z,280.28
2022-12-18T12:30:46.177Z,280.20
2022-12-18T12:35:53.388Z,279.75
2022-12-18T12:41:03.243Z,280.60
2022-12-18T12:46:08.069Z,281.49
2022-12-18T12:51:15.018Z,281.73
2022-12-18T12:56:22.299Z,282.73
2022-12-18T13:01:29.523Z,283.60
2022-12-18T13:06:37.512Z,283.14
2022-12-18T13:11:43.927Z,283.66
2022-12-18T13:16:51.012Z,284.22
2022-12-18T13:21:58.247Z,284.40
2022-12-18T13:27:05.558Z,283.41
2022-12-18T13:32:17.062Z,283.39
2022-12-18T13:37:19.861Z,283.40
2022-12-18T13:42:27.182Z,282.59
2022-12-18T13:47:34.256Z,281.83
2022-12-18T13:52:41.480Z,281.04
2022-12-18T13:57:48.822Z,280.96
2022-12-18T14:02:56.261Z,281.11
2022-12-18T14:08:03.184Z,280.99
2022-12-18T14:13:10.577Z,280.70
2022-12-18T14:18:17.781Z,280.80
2022-12-18T14:23:24.977Z,280.14
2022-12-18T14:28:32.342Z,280.21
2022-12-18T14:33:40.013Z,279.72
2022-12-18T14:38:46.936Z,279.85
2022-12-18T14:43:54.213Z,279.71
2022-12-18T14:49:01.326Z,280.14
2022-12-18T14:54:08.538Z,279.36
2022-12-18T14:59:20.592Z,280.57
2022-12-18T15:04:23.838Z,280.17
2022-12-18T15:09:30.935Z,280.19
2022-12-18T15:14:38.575Z,279.77
2022-12-18T15:19:46.062Z,279.54
2022-12-18T15:24:53.677Z,279.38
2022-12-18T15:30:01.522Z,279.57
2022-12-18T15:35:08.904Z,279.31
2022-12-18T15:40:16.462Z,278.61
2022-12-18T15:45:24.153Z,278.28
2022-12-18T15:50:31.648Z,277.67
2022-12-18T15:55:39.263Z,277.57
2022-12-18T16:00:46.994Z,278.09
2022-12-18T16:05:54.336Z,277.84
2022-12-18T16:11:02.515Z,278.08
2022-12-18T16:16:09.805Z,278.24
2022-12-18T16:21:17.127Z,278.82
2022-12-18T16:26:24.639Z,279.37
2022-12-18T16:31:32.480Z,279.70
2022-12-18T16:36:39.567Z,279.97
2022-12-18T16:41:47.075Z,281.04
2022-12-18T16:47:00.298Z,281.21
2022-12-18T16:52:02.024Z,281.57
2022-12-18T16:57:09.508Z,281.86
2022-12-18T17:02:17.244Z,282.29
2022-12-18T17:07:24.855Z,282.49
2022-12-18T17:12:32.455Z,282.80
2022-12-18T17:17:40.073Z,282.90
2022-12-18T17:22:47.830Z,283.02
2022-12-18T17:27:55.408Z,282.55
2022-12-18T17:33:03.021Z,283.07
2022-12-18T17:38:10.757Z,282.84
2022-12-18T17:43:18.276Z,283.04
2022-12-18T17:48:25.877Z,282.63
2022-12-18T17:53:33.353Z,282.86
2022-12-18T17:58:40.783Z,283.18
2022-12-18T18:03:51.770Z,283.33
2022-12-18T18:08:56.236Z,283.39
2022-12-18T18:14:03.727Z,283.43
2022-12-18T18:19:11.341Z,283.35
2022-12-18T18:24:19.076Z,283.22
2022-12-18T18:29:27.856Z,283.37
2022-12-18T18:34:34.594Z,283.49
2022-12-18T18:39:48.170Z,283.80
2022-12-18T18:44:49.952Z,283.67
2022-12-18T18:49:57.442Z,283.49
2022-12-18T18:55:13.331Z,283.20
2022-12-18T19:00:12.795Z,283.81
2022-12-18T19:05:19.972Z,284.79
2022-12-18T19:10:27.484Z,284.50
2022-12-18T19:15:35.224Z,285.40
2022-12-18T19:20:42.712Z,284.86
2022-12-18T19:25:52.982Z,285.14
2022-12-18T19:30:59.307Z,284.90
2022-12-18T19:36:05.558Z,285.19
2022-12-18T19:41:12.896Z,284.43
2022-12-18T19:46:20.665Z,283.64
2022-12-18T19:51:28.106Z,283.90
2022-12-18T19:56:35.812Z,283.14
2022-12-18T20:01:43.722Z,282.16
2022-12-18T20:06:50.950Z,282.71
2022-12-18T20:11:58.458Z,284.30
2022-12-18T20:17:06.249Z,284.62
2022-12-18T20:22:13.679Z,285.83
2022-12-18T20:27:21.393Z,285.02
2022-12-18T20:32:33.944Z,284.93
2022-12-18T20:37:36.070Z,285.04
2022-12-18T20:42:43.295Z,286.62
2022-12-18T20:47:50.707Z,287.37
2022-12-18T20:52:57.865Z,287.14
2022-12-18T20:58:05.119Z,288.16
2022-12-18T21:03:12.942Z,288.27
2022-12-18T21:08:20.365Z,288.70
2022-12-18T21:13:27.979Z,288.72
2022-12-18T21:18:35.516Z,289.18
2022-12-18T21:23:42.624Z,289.81
2022-12-18T21:28:49.830Z,289.24
2022-12-18T21:34:01.921Z,289.73
2022-12-18T21:39:04.210Z,289.37
2022-12-18T21:44:11.448Z,288.82
2022-12-18T21:49:18.782Z,289.18
2022-12-18T21:54:25.894Z,289.58
2022-12-18T21:59:33.161Z,289.02
2022-12-18T22:04:40.568Z,290.09
2022-12-18T22:09:47.655Z,290.14
2022-12-18T22:14:54.841Z,289.95
2022-12-18T22:20:02.188Z,291.03
2022-12-18T22:25:09.256Z,290.26
2022-12-18T22:30:16.463Z,291.46
2022-12-18T22:35:23.784Z,291.16
2022-12-18T22:40:30.995Z,290.16
2022-12-18T22:45:38.481Z,290.33
2022-12-18T22:50:45.525Z,289.17
2022-12-18T22:55:52.600Z,288.53
2022-12-18T23:00:59.789Z,288.53
2022-12-18T23:06:07.085Z,288.24
2022-12-18T23:11:14.180Z,288.52
2022-12-18T23:16:21.458Z,289.13
2022-12-18T23:21:28.658Z,289.48
2022-12-18T23:26:35.693Z,290.16
2022-12-18T23:31:43.022Z,290.24
2022-12-18T23:36:54.621Z,290.35
2022-12-18T23:41:57.340Z,289.64
2022-12-18T23:47:04.533Z,288.83
2022-12-18T23:52:11.860Z,288.88
2022-12-18T23:57:18.944Z,289.54
